sensor_id;sensor_type;location;lat;lon;timestamp;P1;durP1;ratioP1;P2;durP2;ratioP2
37365;SDS011;23239;51.504;7.456;2023-08-06T00:00:00;5.9;;;2.9;;
37365;SDS011;23239;51.504;7.456;2023-08-06T00:01:00;5.9;;;2.9;;
37365;SDS011;23239;51.504;7.456;2023-08-06T00:02:00;5.9;;;2.9;;
37365;SDS011;23239;51.504;7.456;2023-08-06T00:03:00;5.9;;;2.9;;
37365;SDS011;23239;51.504;7.456;2023-08-06T00:04:00;5.9;;;2.9;;
37365;SDS011;23239;51.504;7.456;2023-08-06T00:05:00;6.2;;;2.9;;
37365;SDS011;23239;51.504;7.456;2023-08-06T00:06:00;6.2;;;2.9;;
37365;SDS011;23239;51.504;7.456;2023-08-06T00:07:00;6.2;;;2.9;;
37365;SDS011;23239;51.504;7.456;2023-08-06T00:08:00;6.2;;;2.9;;
37365;SDS011;23239;51.504;7.456;2023-08-06T00:09:00;6.2;;;2.9;;
37365;SDS011;23239;51.504;7.456;2023-08-06T00:10:00;4.6;;;3.0;;
37365;SDS011;23239;51.504;7.456;2023-08-06T00:11:00;4.6;;;3.0;;
37365;SDS011;23239;51.504;7.456;2023-08-06T00:12:00;4.6;;;3.0;;
37365;SDS011;23239;51.504;7.456;2023-08-06T00:13:00;4.6;;;3.0;;
37365;SDS011;23239;51.504;7.456;2023-08-06T00:14:00;4.6;;;3.0;;
37365;SDS011;23239;51.504;7.456;2023-08-06T00:15:00;3.7;;;2.9;;
37365;SDS011;23239;51.504;7.456;2023-08-06T00:16:08;3.7;;;2.9;;
37365;SDS011;23239;51.504;7.456;2023-08-06T00:17:00;3.7;;;2.9;;
37365;SDS011;23239;51.504;7.456;2023-08-06T00:18:00;3.7;;;2.9;;
37365;SDS011;23239;51.504;7.456;2023-08-06T00:19:00;3.7;;;2.9;;
37365;SDS011;23239;51.504;7.456;2023-08-06T00:20:00;4.7;;;3.1;;
37365;SDS011;23239;51.504;7.456;2023-08-06T00:21:00;4.7;;;3.1;;
37365;SDS011;23239;51.504;7.456;2023-08-06T00:22:00;4.7;;;3.1;;
37365;SDS011;23239;51.504;7.456;2023-08-06T00:23:00;4.7;;;3.1;;
37365;SDS011;23239;51.504;7.456;2023-08-06T00:24:00;4.7;;;3.1;;
37365;SDS011;23239;51.504;7.456;2023-08-06T00:25:00;6.0;;;3.2;;
37365;SDS011;23239;51.504;7.456;2023-08-06T00:26:00;6.0;;;3.2;;
37365;SDS011;23239;51.504;7.456;2023-08-06T00:27:00;6.0;;;3.2;;
37365;SDS011;23239;51.504;7.456;2023-08-06T00:28:00;6.0;;;3.2;;
37365;SDS011;23239;51.504;7.456;2023-08-06T00:29:00;6.0;;;3.2;;
37365;SDS011;23239;51.504;7.456;2023-08-06T00:30:00;5.3;;;3.0;;
37365;SDS011;23239;51.504;7.456;2023-08-06T00:31:00;5.3;;;3.0;;
37365;SDS011;23239;51.504;7.456;2023-08-06T00:32:00;5.3;;;3.0;;
37365;SDS011;23239;51.504;7.456;2023-08-06T00:33:00;5.3;;;3.0;;
37365;SDS011;23239;51.504;7.456;2023-08-06T00:34:00;5.3;;;3.0;;
37365;SDS011;23239;51.504;7.456;2023-08-06T00:35:00;4.8;;;3.1;;
37365;SDS011;23239;51.504;7.456;2023-08-06T00:36:16;4.8;;;3.1;;
37365;SDS011;23239;51.504;7.456;2023-08-06T00:37:00;4.8;;;3.1;;
37365;SDS011;23239;51.504;7.456;2023-08-06T00:38:37;4.8;;;3.1;;
37365;SDS011;23239;51.504;7.456;2023-08-06T00:39:56;5.3;;;2.6;;
37365;SDS011;23239;51.504;7.456;2023-08-06T00:40:00;5.3;;;2.6;;
37365;SDS011;23239;51.504;7.456;2023-08-06T00:41:00;5.3;;;2.6;;
37365;SDS011;23239;51.504;7.456;2023-08-06T00:42:05;5.3;;;2.6;;
37365;SDS011;23239;51.504;7.456;2023-08-06T00:43:00;5.3;;;2.6;;
37365;SDS011;23239;51.504;7.456;2023-08-06T00:44:00;5.3;;;2.6;;
37365;SDS011;23239;51.504;7.456;2023-08-06T00:45:00;4.0;;;2.7;;
37365;SDS011;23239;51.504;7.456;2023-08-06T00:46:00;4.0;;;2.7;;
37365;SDS011;23239;51.504;7.456;2023-08-06T00:47:00;4.0;;;2.7;;
37365;SDS011;23239;51.504;7.456;2023-08-06T00:48:00;4.0;;;2.7;;
37365;SDS011;23239;51.504;7.456;2023-08-06T00:49:00;4.0;;;2.7;;
37365;SDS011;23239;51.504;7.456;2023-08-06T00:50:00;3.8;;;2.6;;
37365;SDS011;23239;51.504;7.456;2023-08-06T00:51:00;3.8;;;2.6;;
37365;SDS011;23239;51.504;7.456;2023-08-06T00:52:00;3.8;;;2.6;;
37365;SDS011;23239;51.504;7.456;2023-08-06T00:53:00;3.8;;;2.6;;
37365;SDS011;23239;51.504;7.456;2023-08-06T00:54:00;3.8;;;2.6;;
37365;SDS011;23239;51.504;7.456;2023-08-06T00:55:00;5.6;;;2.7;;
37365;SDS011;23239;51.504;7.456;2023-08-06T00:56:00;5.6;;;2.7;;
37365;SDS011;23239;51.504;7.456;2023-08-06T00:57:01;5.6;;;2.7;;
37365;SDS011;23239;51.504;7.456;2023-08-06T00:58:00;5.6;;;2.7;;
37365;SDS011;23239;51.504;7.456;2023-08-06T00:59:00;5.6;;;2.7;;
37365;SDS011;23239;51.504;7.456;2023-08-06T01:00:00;5.4;;;3.0;;
37365;SDS011;23239;51.504;7.456;2023-08-06T01:01:00;5.4;;;3.0;;
37365;SDS011;23239;51.504;7.456;2023-08-06T01:02:00;5.4;;;3.0;;
37365;SDS011;23239;51.504;7.456;2023-08-06T01:03:00;5.4;;;3.0;;
37365;SDS011;23239;51.504;7.456;2023-08-06T01:04:00;5.4;;;3.0;;
37365;SDS011;23239;51.504;7.456;2023-08-06T01:05:00;5.3;;;2.9;;
37365;SDS011;23239;51.504;7.456;2023-08-06T01:06:00;5.3;;;2.9;;
37365;SDS011;23239;51.504;7.456;2023-08-06T01:07:02;5.3;;;2.9;;
37365;SDS011;23239;51.504;7.456;2023-08-06T01:08:05;5.3;;;2.9;;
37365;SDS011;23239;51.504;7.456;2023-08-06T01:09:01;5.3;;;2.9;;
37365;SDS011;23239;51.504;7.456;2023-08-06T01:10:04;4.0;;;2.6;;
37365;SDS011;23239;51.504;7.456;2023-08-06T01:11:04;4.0;;;2.6;;
37365;SDS011;23239;51.504;7.456;2023-08-06T01:12:04;4.0;;;2.6;;
37365;SDS011;23239;51.504;7.456;2023-08-06T01:13:04;4.0;;;2.6;;
37365;SDS011;23239;51.504;7.456;2023-08-06T01:14:02;4.0;;;2.6;;
37365;SDS011;23239;51.504;7.456;2023-08-06T01:15:00;5.1;;;2.6;;
37365;SDS011;23239;51.504;7.456;2023-08-06T01:16:00;5.1;;;2.6;;
37365;SDS011;23239;51.504;7.456;2023-08-06T01:17:00;5.1;;;2.6;;
37365;SDS011;23239;51.504;7.456;2023-08-06T01:18:00;5.1;;;2.6;;
37365;SDS011;23239;51.504;7.456;2023-08-06T01:19:00;5.1;;;2.6;;
37365;SDS011;23239;51.504;7.456;2023-08-06T01:20:00;5.2;;;2.9;;
37365;SDS011;23239;51.504;7.456;2023-08-06T01:21:00;5.2;;;2.9;;
37365;SDS011;23239;51.504;7.456;2023-08-06T01:22:00;5.2;;;2.9;;
37365;SDS011;23239;51.504;7.456;2023-08-06T01:23:00;5.2;;;2.9;;
37365;SDS011;23239;51.504;7.456;2023-08-06T01:24:00;5.2;;;2.9;;
37365;SDS011;23239;51.504;7.456;2023-08-06T01:25:00;3.5;;;2.7;;
37365;SDS011;23239;51.504;7.456;2023-08-06T01:26:02;3.5;;;2.7;;
37365;SDS011;23239;51.504;7.456;2023-08-06T01:27:04;3.5;;;2.7;;
37365;SDS011;23239;51.504;7.456;2023-08-06T01:28:02;3.5;;;2.7;;
37365;SDS011;23239;51.504;7.456;2023-08-06T01:29:03;3.5;;;2.7;;
37365;SDS011;23239;51.504;7.456;2023-08-06T01:30:02;4.3;;;2.5;;
37365;SDS011;23239;51.504;7.456;2023-08-06T01:31:01;4.3;;;2.5;;
37365;SDS011;23239;51.504;7.456;2023-08-06T01:32:00;4.3;;;2.5;;
37365;SDS011;23239;51.504;7.456;2023-08-06T01:33:00;4.3;;;2.5;;
37365;SDS011;23239;51.504;7.456;2023-08-06T01:34:00;4.3;;;2.5;;
37365;SDS011;23239;51.504;7.456;2023-08-06T01:35:00;3.4;;;2.7;;
37365;SDS011;23239;51.504;7.456;2023-08-06T01:36:00;3.4;;;2.7;;
37365;SDS011;23239;51.504;7.456;2023-08-06T01:37:00;3.4;;;2.7;;
37365;SDS011;23239;51.504;7.456;2023-08-06T01:38:00;3.4;;;2.7;;
37365;SDS011;23239;51.504;7.456;2023-08-06T01:39:00;3.4;;;2.7;;
37365;SDS011;23239;51.504;7.456;2023-08-06T01:40:00;5.7;;;2.7;;
37365;SDS011;23239;51.504;7.456;2023-08-06T01:41:00;5.7;;;2.7;;
37365;SDS011;23239;51.504;7.456;2023-08-06T01:42:00;5.7;;;2.7;;
37365;SDS011;23239;51.504;7.456;2023-08-06T01:43:00;5.7;;;2.7;;
37365;SDS011;23239;51.504;7.456;2023-08-06T01:44:00;5.7;;;2.7;;
37365;SDS011;23239;51.504;7.456;2023-08-06T01:45:00;4.0;;;2.7;;
37365;SDS011;23239;51.504;7.456;2023-08-06T01:46:00;4.0;;;2.7;;
37365;SDS011;23239;51.504;7.456;2023-08-06T01:47:00;4.0;;;2.7;;
37365;SDS011;23239;51.504;7.456;2023-08-06T01:48:00;4.0;;;2.7;;
37365;SDS011;23239;51.504;7.456;2023-08-06T01:49:00;4.0;;;2.7;;
37365;SDS011;23239;51.504;7.456;2023-08-06T01:50:00;5.9;;;2.7;;
37365;SDS011;23239;51.504;7.456;2023-08-06T01:51:00;5.9;;;2.7;;
37365;SDS011;23239;51.504;7.456;2023-08-06T01:52:00;5.9;;;2.7;;
37365;SDS011;23239;51.504;7.456;2023-08-06T01:53:00;5.9;;;2.7;;
37365;SDS011;23239;51.504;7.456;2023-08-06T01:54:00;5.9;;;2.7;;
37365;SDS011;23239;51.504;7.456;2023-08-06T01:55:00;6.7;;;2.7;;
37365;SDS011;23239;51.504;7.456;2023-08-06T01:56:00;6.7;;;2.7;;
37365;SDS011;23239;51.504;7.456;2023-08-06T01:57:00;6.7;;;2.7;;
37365;SDS011;23239;51.504;7.456;2023-08-06T01:58:00;6.7;;;2.7;;
37365;SDS011;23239;51.504;7.456;2023-08-06T01:59:00;6.7;;;2.7;;
37365;SDS011;23239;51.504;7.456;2023-08-06T02:00:00;4.4;;;2.9;;
37365;SDS011;23239;51.504;7.456;2023-08-06T02:01:00;4.4;;;2.9;;
37365;SDS011;23239;51.504;7.456;2023-08-06T02:02:00;4.4;;;2.9;;
37365;SDS011;23239;51.504;7.456;2023-08-06T02:03:00;4.4;;;2.9;;
37365;SDS011;23239;51.504;7.456;2023-08-06T02:04:00;4.4;;;2.9;;
37365;SDS011;23239;51.504;7.456;2023-08-06T02:05:00;5.0;;;2.6;;
37365;SDS011;23239;51.504;7.456;2023-08-06T02:06:00;5.0;;;2.6;;
37365;SDS011;23239;51.504;7.456;2023-08-06T02:07:00;5.0;;;2.6;;
37365;SDS011;23239;51.504;7.456;2023-08-06T02:08:00;5.0;;;2.6;;
37365;SDS011;23239;51.504;7.456;2023-08-06T02:09:00;5.0;;;2.6;;
37365;SDS011;23239;51.504;7.456;2023-08-06T02:10:00;4.6;;;2.8;;
37365;SDS011;23239;51.504;7.456;2023-08-06T02:11:00;4.6;;;2.8;;
37365;SDS011;23239;51.504;7.456;2023-08-06T02:12:00;4.6;;;2.8;;
37365;SDS011;23239;51.504;7.456;2023-08-06T02:13:00;4.6;;;2.8;;
37365;SDS011;23239;51.504;7.456;2023-08-06T02:14:00;4.6;;;2.8;;
37365;SDS011;23239;51.504;7.456;2023-08-06T02:15:00;4.9;;;2.8;;
37365;SDS011;23239;51.504;7.456;2023-08-06T02:16:00;4.9;;;2.8;;
37365;SDS011;23239;51.504;7.456;2023-08-06T02:17:00;4.9;;;2.8;;
37365;SDS011;23239;51.504;7.456;2023-08-06T02:18:00;4.9;;;2.8;;
37365;SDS011;23239;51.504;7.456;2023-08-06T02:19:00;4.9;;;2.8;;
37365;SDS011;23239;51.504;7.456;2023-08-06T02:20:00;4.3;;;2.8;;
37365;SDS011;23239;51.504;7.456;2023-08-06T02:21:00;4.3;;;2.8;;
37365;SDS011;23239;51.504;7.456;2023-08-06T02:22:00;4.3;;;2.8;;
37365;SDS011;23239;51.504;7.456;2023-08-06T02:23:00;4.3;;;2.8;;
37365;SDS011;23239;51.504;7.456;2023-08-06T02:24:00;4.3;;;2.8;;
37365;SDS011;23239;51.504;7.456;2023-08-06T02:25:00;5.0;;;2.9;;
37365;SDS011;23239;51.504;7.456;2023-08-06T02:26:00;5.0;;;2.9;;
37365;SDS011;23239;51.504;7.456;2023-08-06T02:27:00;5.0;;;2.9;;
37365;SDS011;23239;51.504;7.456;2023-08-06T02:28:00;5.0;;;2.9;;
37365;SDS011;23239;51.504;7.456;2023-08-06T02:29:00;5.0;;;2.9;;
37365;SDS011;23239;51.504;7.456;2023-08-06T02:30:00;5.2;;;3.1;;
37365;SDS011;23239;51.504;7.456;2023-08-06T02:31:00;5.2;;;3.1;;
37365;SDS011;23239;51.504;7.456;2023-08-06T02:32:00;5.2;;;3.1;;
37365;SDS011;23239;51.504;7.456;2023-08-06T02:33:00;5.2;;;3.1;;
37365;SDS011;23239;51.504;7.456;2023-08-06T02:34:00;5.2;;;3.1;;
37365;SDS011;23239;51.504;7.456;2023-08-06T02:35:00;4.4;;;2.9;;
37365;SDS011;23239;51.504;7.456;2023-08-06T02:36:00;4.4;;;2.9;;
37365;SDS011;23239;51.504;7.456;2023-08-06T02:37:00;4.4;;;2.9;;
37365;SDS011;23239;51.504;7.456;2023-08-06T02:38:00;4.4;;;2.9;;
37365;SDS011;23239;51.504;7.456;2023-08-06T02:39:00;4.4;;;2.9;;
37365;SDS011;23239;51.504;7.456;2023-08-06T02:40:00;3.6;;;3.2;;
37365;SDS011;23239;51.504;7.456;2023-08-06T02:41:01;3.6;;;3.2;;
37365;SDS011;23239;51.504;7.456;2023-08-06T02:42:00;3.6;;;3.2;;
37365;SDS011;23239;51.504;7.456;2023-08-06T02:43:00;3.6;;;3.2;;
37365;SDS011;23239;51.504;7.456;2023-08-06T02:44:00;3.6;;;3.2;;
37365;SDS011;23239;51.504;7.456;2023-08-06T02:45:00;4.0;;;2.7;;
37365;SDS011;23239;51.504;7.456;2023-08-06T02:46:00;4.0;;;2.7;;
37365;SDS011;23239;51.504;7.456;2023-08-06T02:47:00;4.0;;;2.7;;
37365;SDS011;23239;51.504;7.456;2023-08-06T02:48:00;4.0;;;2.7;;
37365;SDS011;23239;51.504;7.456;2023-08-06T02:49:00;4.0;;;2.7;;
37365;SDS011;23239;51.504;7.456;2023-08-06T02:50:00;4.0;;;3.1;;
37365;SDS011;23239;51.504;7.456;2023-08-06T02:51:00;4.0;;;3.1;;
37365;SDS011;23239;51.504;7.456;2023-08-06T02:52:00;4.0;;;3.1;;
37365;SDS011;23239;51.504;7.456;2023-08-06T02:53:00;4.0;;;3.1;;
37365;SDS011;23239;51.504;7.456;2023-08-06T02:54:00;4.0;;;3.1;;
37365;SDS011;23239;51.504;7.456;2023-08-06T02:55:00;4.8;;;3.0;;
37365;SDS011;23239;51.504;7.456;2023-08-06T02:56:00;4.8;;;3.0;;
37365;SDS011;23239;51.504;7.456;2023-08-06T02:57:00;4.8;;;3.0;;
37365;SDS011;23239;51.504;7.456;2023-08-06T02:58:00;4.8;;;3.0;;
37365;SDS011;23239;51.504;7.456;2023-08-06T02:59:00;4.8;;;3.0;;
37365;SDS011;23239;51.504;7.456;2023-08-06T03:00:00;3.3;;;2.9;;
37365;SDS011;23239;51.504;7.456;2023-08-06T03:01:01;3.3;;;2.9;;
37365;SDS011;23239;51.504;7.456;2023-08-06T03:02:00;3.3;;;2.9;;
37365;SDS011;23239;51.504;7.456;2023-08-06T03:03:00;3.3;;;2.9;;
37365;SDS011;23239;51.504;7.456;2023-08-06T03:04:00;3.3;;;2.9;;
37365;SDS011;23239;51.504;7.456;2023-08-06T03:05:00;5.1;;;3.2;;
37365;SDS011;23239;51.504;7.456;2023-08-06T03:06:00;5.1;;;3.2;;
37365;SDS011;23239;51.504;7.456;2023-08-06T03:07:00;5.1;;;3.2;;
37365;SDS011;23239;51.504;7.456;2023-08-06T03:08:00;5.1;;;3.2;;
37365;SDS011;23239;51.504;7.456;2023-08-06T03:09:00;5.1;;;3.2;;
37365;SDS011;23239;51.504;7.456;2023-08-06T03:10:00;4.8;;;3.0;;
37365;SDS011;23239;51.504;7.456;2023-08-06T03:11:00;4.8;;;3.0;;
37365;SDS011;23239;51.504;7.456;2023-08-06T03:12:00;4.8;;;3.0;;
37365;SDS011;23239;51.504;7.456;2023-08-06T03:13:00;4.8;;;3.0;;
37365;SDS011;23239;51.504;7.456;2023-08-06T03:14:00;4.8;;;3.0;;
37365;SDS011;23239;51.504;7.456;2023-08-06T03:15:00;4.6;;;2.9;;
37365;SDS011;23239;51.504;7.456;2023-08-06T03:16:00;4.6;;;2.9;;
37365;SDS011;23239;51.504;7.456;2023-08-06T03:17:00;4.6;;;2.9;;
37365;SDS011;23239;51.504;7.456;2023-08-06T03:18:00;4.6;;;2.9;;
37365;SDS011;23239;51.504;7.456;2023-08-06T03:19:00;4.6;;;2.9;;
37365;SDS011;23239;51.504;7.456;2023-08-06T03:20:00;5.5;;;3.4;;
37365;SDS011;23239;51.504;7.456;2023-08-06T03:21:00;5.5;;;3.4;;
37365;SDS011;23239;51.504;7.456;2023-08-06T03:22:00;5.5;;;3.4;;
37365;SDS011;23239;51.504;7.456;2023-08-06T03:23:00;5.5;;;3.4;;
37365;SDS011;23239;51.504;7.456;2023-08-06T03:24:00;5.5;;;3.4;;
37365;SDS011;23239;51.504;7.456;2023-08-06T03:25:00;4.0;;;3.0;;
37365;SDS011;23239;51.504;7.456;2023-08-06T03:26:00;4.0;;;3.0;;
37365;SDS011;23239;51.504;7.456;2023-08-06T03:27:00;4.0;;;3.0;;
37365;SDS011;23239;51.504;7.456;2023-08-06T03:28:00;4.0;;;3.0;;
37365;SDS011;23239;51.504;7.456;2023-08-06T03:29:00;4.0;;;3.0;;
37365;SDS011;23239;51.504;7.456;2023-08-06T03:30:00;4.4;;;3.2;;
37365;SDS011;23239;51.504;7.456;2023-08-06T03:31:00;4.4;;;3.2;;
37365;SDS011;23239;51.504;7.456;2023-08-06T03:32:00;4.4;;;3.2;;
37365;SDS011;23239;51.504;7.456;2023-08-06T03:33:00;4.4;;;3.2;;
37365;SDS011;23239;51.504;7.456;2023-08-06T03:34:00;4.4;;;3.2;;
37365;SDS011;23239;51.504;7.456;2023-08-06T03:35:00;4.6;;;3.3;;
37365;SDS011;23239;51.504;7.456;2023-08-06T03:36:00;4.6;;;3.3;;
37365;SDS011;23239;51.504;7.456;2023-08-06T03:37:00;4.6;;;3.3;;
37365;SDS011;23239;51.504;7.456;2023-08-06T03:38:00;4.6;;;3.3;;
37365;SDS011;23239;51.504;7.456;2023-08-06T03:39:00;4.6;;;3.3;;
37365;SDS011;23239;51.504;7.456;2023-08-06T03:40:00;4.1;;;3.0;;
37365;SDS011;23239;51.504;7.456;2023-08-06T03:41:00;4.1;;;3.0;;
37365;SDS011;23239;51.504;7.456;2023-08-06T03:42:00;4.1;;;3.0;;
37365;SDS011;23239;51.504;7.456;2023-08-06T03:43:00;4.1;;;3.0;;
37365;SDS011;23239;51.504;7.456;2023-08-06T03:44:00;4.1;;;3.0;;
37365;SDS011;23239;51.504;7.456;2023-08-06T03:45:00;5.3;;;3.2;;
37365;SDS011;23239;51.504;7.456;2023-08-06T03:46:00;5.3;;;3.2;;
37365;SDS011;23239;51.504;7.456;2023-08-06T03:47:00;5.3;;;3.2;;
37365;SDS011;23239;51.504;7.456;2023-08-06T03:48:00;5.3;;;3.2;;
37365;SDS011;23239;51.504;7.456;2023-08-06T03:49:00;5.3;;;3.2;;
37365;SDS011;23239;51.504;7.456;2023-08-06T03:50:00;4.1;;;3.2;;
37365;SDS011;23239;51.504;7.456;2023-08-06T03:51:00;4.1;;;3.2;;
37365;SDS011;23239;51.504;7.456;2023-08-06T03:52:00;4.1;;;3.2;;
37365;SDS011;23239;51.504;7.456;2023-08-06T03:53:00;4.1;;;3.2;;
37365;SDS011;23239;51.504;7.456;2023-08-06T03:54:00;4.1;;;3.2;;
37365;SDS011;23239;51.504;7.456;2023-08-06T03:55:00;3.9;;;2.9;;
37365;SDS011;23239;51.504;7.456;2023-08-06T03:56:00;3.9;;;2.9;;
37365;SDS011;23239;51.504;7.456;2023-08-06T03:57:00;3.9;;;2.9;;
37365;SDS011;23239;51.504;7.456;2023-08-06T03:58:00;3.9;;;2.9;;
37365;SDS011;23239;51.504;7.456;2023-08-06T03:59:00;3.9;;;2.9;;
37365;SDS011;23239;51.504;7.456;2023-08-06T04:00:00;5.1;;;3.1;;
37365;SDS011;23239;51.504;7.456;2023-08-06T04:01:00;5.1;;;3.1;;
37365;SDS011;23239;51.504;7.456;2023-08-06T04:02:00;5.1;;;3.1;;
37365;SDS011;23239;51.504;7.456;2023-08-06T04:03:00;5.1;;;3.1;;
37365;SDS011;23239;51.504;7.456;2023-08-06T04:04:00;5.1;;;3.1;;
37365;SDS011;23239;51.504;7.456;2023-08-06T04:05:00;4.2;;;3.2;;
37365;SDS011;23239;51.504;7.456;2023-08-06T04:06:01;4.2;;;3.2;;
37365;SDS011;23239;51.504;7.456;2023-08-06T04:07:00;4.2;;;3.2;;
37365;SDS011;23239;51.504;7.456;2023-08-06T04:08:00;4.2;;;3.2;;
37365;SDS011;23239;51.504;7.456;2023-08-06T04:09:00;4.2;;;3.2;;
37365;SDS011;23239;51.504;7.456;2023-08-06T04:10:02;6.5;;;3.2;;
37365;SDS011;23239;51.504;7.456;2023-08-06T04:11:00;6.5;;;3.2;;
37365;SDS011;23239;51.504;7.456;2023-08-06T04:12:00;6.5;;;3.2;;
37365;SDS011;23239;51.504;7.456;2023-08-06T04:13:00;6.5;;;3.2;;
37365;SDS011;23239;51.504;7.456;2023-08-06T04:14:00;6.5;;;3.2;;
37365;SDS011;23239;51.504;7.456;2023-08-06T04:15:00;3.6;;;2.9;;
37365;SDS011;23239;51.504;7.456;2023-08-06T04:16:01;3.6;;;2.9;;
37365;SDS011;23239;51.504;7.456;2023-08-06T04:17:00;3.6;;;2.9;;
37365;SDS011;23239;51.504;7.456;2023-08-06T04:18:00;3.6;;;2.9;;
37365;SDS011;23239;51.504;7.456;2023-08-06T04:19:00;3.6;;;2.9;;
37365;SDS011;23239;51.504;7.456;2023-08-06T04:20:00;3.8;;;3.0;;
37365;SDS011;23239;51.504;7.456;2023-08-06T04:21:01;3.8;;;3.0;;
37365;SDS011;23239;51.504;7.456;2023-08-06T04:22:00;3.8;;;3.0;;
37365;SDS011;23239;51.504;7.456;2023-08-06T04:23:05;3.8;;;3.0;;
37365;SDS011;23239;51.504;7.456;2023-08-06T04:24:00;3.8;;;3.0;;
37365;SDS011;23239;51.504;7.456;2023-08-06T04:25:00;3.7;;;3.3;;
37365;SDS011;23239;51.504;7.456;2023-08-06T04:26:00;3.7;;;3.3;;
37365;SDS011;23239;51.504;7.456;2023-08-06T04:27:00;3.7;;;3.3;;
37365;SDS011;23239;51.504;7.456;2023-08-06T04:28:00;3.7;;;3.3;;
37365;SDS011;23239;51.504;7.456;2023-08-06T04:29:00;3.7;;;3.3;;
37365;SDS011;23239;51.504;7.456;2023-08-06T04:30:00;6.5;;;3.3;;
37365;SDS011;23239;51.504;7.456;2023-08-06T04:31:00;6.5;;;3.3;;
37365;SDS011;23239;51.504;7.456;2023-08-06T04:32:00;6.5;;;3.3;;
37365;SDS011;23239;51.504;7.456;2023-08-06T04:33:00;6.5;;;3.3;;
37365;SDS011;23239;51.504;7.456;2023-08-06T04:34:00;6.5;;;3.3;;
37365;SDS011;23239;51.504;7.456;2023-08-06T04:35:00;4.4;;;3.3;;
37365;SDS011;23239;51.504;7.456;2023-08-06T04:36:00;4.4;;;3.3;;
37365;SDS011;23239;51.504;7.456;2023-08-06T04:37:00;4.4;;;3.3;;
37365;SDS011;23239;51.504;7.456;2023-08-06T04:38:00;4.4;;;3.3;;
37365;SDS011;23239;51.504;7.456;2023-08-06T04:39:00;4.4;;;3.3;;
37365;SDS011;23239;51.504;7.456;2023-08-06T04:40:00;5.6;;;3.1;;
37365;SDS011;23239;51.504;7.456;2023-08-06T04:41:01;5.6;;;3.1;;
37365;SDS011;23239;51.504;7.456;2023-08-06T04:42:00;5.6;;;3.1;;
37365;SDS011;23239;51.504;7.456;2023-08-06T04:43:00;5.6;;;3.1;;
37365;SDS011;23239;51.504;7.456;2023-08-06T04:44:00;5.6;;;3.1;;
37365;SDS011;23239;51.504;7.456;2023-08-06T04:45:00;3.7;;;3.2;;
37365;SDS011;23239;51.504;7.456;2023-08-06T04:46:00;3.7;;;3.2;;
37365;SDS011;23239;51.504;7.456;2023-08-06T04:47:00;3.7;;;3.2;;
37365;SDS011;23239;51.504;7.456;2023-08-06T04:48:00;3.7;;;3.2;;
37365;SDS011;23239;51.504;7.456;2023-08-06T04:49:00;3.7;;;3.2;;
37365;SDS011;23239;51.504;7.456;2023-08-06T04:50:00;5.8;;;3.3;;
37365;SDS011;23239;51.504;7.456;2023-08-06T04:51:00;5.8;;;3.3;;
37365;SDS011;23239;51.504;7.456;2023-08-06T04:52:00;5.8;;;3.3;;
37365;SDS011;23239;51.504;7.456;2023-08-06T04:53:00;5.8;;;3.3;;
37365;SDS011;23239;51.504;7.456;2023-08-06T04:54:00;5.8;;;3.3;;
37365;SDS011;23239;51.504;7.456;2023-08-06T04:55:00;5.2;;;3.6;;
37365;SDS011;23239;51.504;7.456;2023-08-06T04:56:00;5.2;;;3.6;;
37365;SDS011;23239;51.504;7.456;2023-08-06T04:57:00;5.2;;;3.6;;
37365;SDS011;23239;51.504;7.456;2023-08-06T04:58:00;5.2;;;3.6;;
37365;SDS011;23239;51.504;7.456;2023-08-06T04:59:00;5.2;;;3.6;;
37365;SDS011;23239;51.504;7.456;2023-08-06T05:00:00;5.8;;;3.3;;
37365;SDS011;23239;51.504;7.456;2023-08-06T05:01:00;5.8;;;3.3;;
37365;SDS011;23239;51.504;7.456;2023-08-06T05:02:00;5.8;;;3.3;;
37365;SDS011;23239;51.504;7.456;2023-08-06T05:03:00;5.8;;;3.3;;
37365;SDS011;23239;51.504;7.456;2023-08-06T05:04:00;5.8;;;3.3;;
37365;SDS011;23239;51.504;7.456;2023-08-06T05:05:00;4.8;;;3.5;;
37365;SDS011;23239;51.504;7.456;2023-08-06T05:06:00;4.8;;;3.5;;
37365;SDS011;23239;51.504;7.456;2023-08-06T05:07:00;4.8;;;3.5;;
37365;SDS011;23239;51.504;7.456;2023-08-06T05:08:00;4.8;;;3.5;;
37365;SDS011;23239;51.504;7.456;2023-08-06T05:09:00;4.8;;;3.5;;
37365;SDS011;23239;51.504;7.456;2023-08-06T05:10:00;4.3;;;3.1;;
37365;SDS011;23239;51.504;7.456;2023-08-06T05:11:00;4.3;;;3.1;;
37365;SDS011;23239;51.504;7.456;2023-08-06T05:12:00;4.3;;;3.1;;
37365;SDS011;23239;51.504;7.456;2023-08-06T05:13:00;4.3;;;3.1;;
37365;SDS011;23239;51.504;7.456;2023-08-06T05:14:00;4.3;;;3.1;;
37365;SDS011;23239;51.504;7.456;2023-08-06T05:15:00;3.9;;;3.0;;
37365;SDS011;23239;51.504;7.456;2023-08-06T05:16:00;3.9;;;3.0;;
37365;SDS011;23239;51.504;7.456;2023-08-06T05:17:00;3.9;;;3.0;;
37365;SDS011;23239;51.504;7.456;2023-08-06T05:18:00;3.9;;;3.0;;
37365;SDS011;23239;51.504;7.456;2023-08-06T05:19:00;3.9;;;3.0;;
37365;SDS011;23239;51.504;7.456;2023-08-06T05:20:00;5.3;;;3.1;;
37365;SDS011;23239;51.504;7.456;2023-08-06T05:21:00;5.3;;;3.1;;
37365;SDS011;23239;51.504;7.456;2023-08-06T05:22:00;5.3;;;3.1;;
37365;SDS011;23239;51.504;7.456;2023-08-06T05:23:00;5.3;;;3.1;;
37365;SDS011;23239;51.504;7.456;2023-08-06T05:24:00;5.3;;;3.1;;
37365;SDS011;23239;51.504;7.456;2023-08-06T05:25:00;4.8;;;2.9;;
37365;SDS011;23239;51.504;7.456;2023-08-06T05:26:00;4.8;;;2.9;;
37365;SDS011;23239;51.504;7.456;2023-08-06T05:27:00;4.8;;;2.9;;
37365;SDS011;23239;51.504;7.456;2023-08-06T05:28:00;4.8;;;2.9;;
37365;SDS011;23239;51.504;7.456;2023-08-06T05:29:00;4.8;;;2.9;;
37365;SDS011;23239;51.504;7.456;2023-08-06T05:30:00;3.5;;;2.6;;
37365;SDS011;23239;51.504;7.456;2023-08-06T05:31:02;3.5;;;2.6;;
37365;SDS011;23239;51.504;7.456;2023-08-06T05:32:00;3.5;;;2.6;;
37365;SDS011;23239;51.504;7.456;2023-08-06T05:33:00;3.5;;;2.6;;
37365;SDS011;23239;51.504;7.456;2023-08-06T05:34:00;3.5;;;2.6;;
37365;SDS011;23239;51.504;7.456;2023-08-06T05:35:00;3.1;;;2.5;;
37365;SDS011;23239;51.504;7.456;2023-08-06T05:36:00;3.1;;;2.5;;
37365;SDS011;23239;51.504;7.456;2023-08-06T05:37:00;3.1;;;2.5;;
37365;SDS011;23239;51.504;7.456;2023-08-06T05:38:00;3.1;;;2.5;;
37365;SDS011;23239;51.504;7.456;2023-08-06T05:39:00;3.1;;;2.5;;
37365;SDS011;23239;51.504;7.456;2023-08-06T05:40:00;4.8;;;2.8;;
37365;SDS011;23239;51.504;7.456;2023-08-06T05:41:00;4.8;;;2.8;;
37365;SDS011;23239;51.504;7.456;2023-08-06T05:42:00;4.8;;;2.8;;
37365;SDS011;23239;51.504;7.456;2023-08-06T05:43:00;4.8;;;2.8;;
37365;SDS011;23239;51.504;7.456;2023-08-06T05:44:00;4.8;;;2.8;;
37365;SDS011;23239;51.504;7.456;2023-08-06T05:45:00;3.6;;;2.7;;
37365;SDS011;23239;51.504;7.456;2023-08-06T05:46:00;3.6;;;2.7;;
37365;SDS011;23239;51.504;7.456;2023-08-06T05:47:00;3.6;;;2.7;;
37365;SDS011;23239;51.504;7.456;2023-08-06T05:48:00;3.6;;;2.7;;
37365;SDS011;23239;51.504;7.456;2023-08-06T05:49:00;3.6;;;2.7;;
37365;SDS011;23239;51.504;7.456;2023-08-06T05:50:00;3.9;;;2.8;;
37365;SDS011;23239;51.504;7.456;2023-08-06T05:51:00;3.9;;;2.8;;
37365;SDS011;23239;51.504;7.456;2023-08-06T05:52:00;3.9;;;2.8;;
37365;SDS011;23239;51.504;7.456;2023-08-06T05:53:00;3.9;;;2.8;;
37365;SDS011;23239;51.504;7.456;2023-08-06T05:54:00;3.9;;;2.8;;
37365;SDS011;23239;51.504;7.456;2023-08-06T05:55:00;4.6;;;2.5;;
37365;SDS011;23239;51.504;7.456;2023-08-06T05:56:00;4.6;;;2.5;;
37365;SDS011;23239;51.504;7.456;2023-08-06T05:57:00;4.6;;;2.5;;
37365;SDS011;23239;51.504;7.456;2023-08-06T05:58:00;4.6;;;2.5;;
37365;SDS011;23239;51.504;7.456;2023-08-06T05:59:00;4.6;;;2.5;;
37365;SDS011;23239;51.504;7.456;2023-08-06T06:00:00;3.5;;;2.4;;
37365;SDS011;23239;51.504;7.456;2023-08-06T06:01:00;3.5;;;2.4;;
37365;SDS011;23239;51.504;7.456;2023-08-06T06:02:00;3.5;;;2.4;;
37365;SDS011;23239;51.504;7.456;2023-08-06T06:03:00;3.5;;;2.4;;
37365;SDS011;23239;51.504;7.456;2023-08-06T06:04:00;3.5;;;2.4;;
37365;SDS011;23239;51.504;7.456;2023-08-06T06:05:00;5.0;;;2.4;;
37365;SDS011;23239;51.504;7.456;2023-08-06T06:06:00;5.0;;;2.4;;
37365;SDS011;23239;51.504;7.456;2023-08-06T06:07:00;5.0;;;2.4;;
37365;SDS011;23239;51.504;7.456;2023-08-06T06:08:00;5.0;;;2.4;;
37365;SDS011;23239;51.504;7.456;2023-08-06T06:09:00;5.0;;;2.4;;
37365;SDS011;23239;51.504;7.456;2023-08-06T06:10:00;3.3;;;2.2;;
37365;SDS011;23239;51.504;7.456;2023-08-06T06:11:00;3.3;;;2.2;;
37365;SDS011;23239;51.504;7.456;2023-08-06T06:12:00;3.3;;;2.2;;